createdAt,value
2019-05-03T00:01:44.948Z,2.10
2019-05-03T00:04:16.321Z,2.20
2019-05-03T00:06:47.909Z,2.50
2019-05-03T00:09:19.672Z,2.00
2019-05-03T00:11:52.708Z,2.00
2019-05-03T00:14:23.171Z,2.30
2019-05-03T00:16:53.945Z,2.17
2019-05-03T00:19:24.552Z,1.85
2019-05-03T00:21:55.886Z,2.45
2019-05-03T00:24:26.570Z,2.45
2019-05-03T00:26:57.324Z,2.20
2019-05-03T00:29:28.519Z,2.10
2019-05-03T00:31:59.231Z,3.08
2019-05-03T00:34:34.811Z,2.70
2019-05-03T00:37:08.747Z,2.98
2019-05-03T00:39:52.290Z,2.77
2019-05-03T00:42:22.638Z,2.95
2019-05-03T00:44:53.369Z,3.08
2019-05-03T00:47:24.070Z,2.92
2019-05-03T00:49:57.629Z,2.55
2019-05-03T00:52:28.363Z,2.70
2019-05-03T00:54:59.075Z,2.70
2019-05-03T00:57:32.336Z,2.70
2019-05-03T01:00:03.374Z,2.50
2019-05-03T01:02:35.068Z,2.20
2019-05-03T01:05:06.284Z,2.35
2019-05-03T01:07:38.074Z,2.05
2019-05-03T01:10:11.730Z,2.05
2019-05-03T01:12:42.813Z,2.10
2019-05-03T01:15:22.229Z,2.10
2019-05-03T01:17:52.913Z,1.87
2019-05-03T01:20:23.632Z,1.85
2019-05-03T01:22:54.482Z,1.80
2019-05-03T01:25:32.124Z,1.50
2019-05-03T01:27:57.748Z,1.40
2019-05-03T01:30:28.400Z,1.55
2019-05-03T01:32:59.147Z,1.60
2019-05-03T01:35:29.811Z,1.50
2019-05-03T01:38:02.045Z,1.90
2019-05-03T01:40:33.200Z,1.65
2019-05-03T01:43:04.026Z,2.02
2019-05-03T01:45:34.912Z,2.50
2019-05-03T01:48:22.514Z,2.67
2019-05-03T01:51:11.814Z,1.20
2019-05-03T01:53:42.757Z,1.50
2019-05-03T01:56:13.653Z,1.67
2019-05-03T01:58:44.428Z,1.57
2019-05-03T02:01:43.149Z,1.15
2019-05-03T02:04:21.545Z,1.27
2019-05-03T02:06:52.074Z,1.10
2019-05-03T02:09:22.933Z,1.10
2019-05-03T02:11:54.009Z,1.25
2019-05-03T02:14:24.892Z,1.17
2019-05-03T02:16:55.735Z,1.00
2019-05-03T02:19:26.567Z,1.00
2019-05-03T02:21:57.365Z,1.40
2019-05-03T02:24:28.287Z,1.00
2019-05-03T02:26:59.159Z,1.40
2019-05-03T02:29:29.762Z,1.20
2019-05-03T02:32:03.117Z,1.12
2019-05-03T02:34:33.343Z,1.32
2019-05-03T02:37:04.255Z,1.02
2019-05-03T02:39:34.930Z,1.30
2019-05-03T02:42:10.850Z,1.30
2019-05-03T02:44:39.410Z,1.30
2019-05-03T02:47:31.934Z,1.25
2019-05-03T02:50:07.138Z,1.37
2019-05-03T02:52:38.149Z,1.45
2019-05-03T02:55:11.971Z,1.17
2019-05-03T02:57:46.268Z,1.12
2019-05-03T03:00:17.063Z,1.50
2019-05-03T03:02:47.889Z,1.30
2019-05-03T03:05:30.706Z,1.42
2019-05-03T03:08:05.932Z,1.60
2019-05-03T03:10:36.622Z,1.40
2019-05-03T03:13:08.704Z,1.35
2019-05-03T03:15:45.684Z,1.25
2019-05-03T03:18:17.269Z,1.30
2019-05-03T03:20:50.804Z,1.45
2019-05-03T03:23:26.298Z,1.75
2019-05-03T03:25:58.768Z,1.50
2019-05-03T03:28:31.633Z,1.37
2019-05-03T03:31:30.438Z,1.27
2019-05-03T03:34:08.377Z,1.30
2019-05-03T03:36:58.891Z,1.40
2019-05-03T03:39:17.831Z,1.30
2019-05-03T03:41:48.909Z,1.20
2019-05-03T03:44:21.457Z,1.30
2019-05-03T03:46:52.421Z,1.30
2019-05-03T03:49:26.036Z,1.17
2019-05-03T03:51:57.887Z,1.00
2019-05-03T03:54:31.636Z,1.05
2019-05-03T03:57:07.841Z,1.12
2019-05-03T03:59:37.328Z,1.22
2019-05-03T04:02:08.176Z,1.10
2019-05-03T04:04:50.262Z,1.30
2019-05-03T04:07:21.644Z,1.20
2019-05-03T04:09:52.827Z,1.20
2019-05-03T04:12:26.484Z,1.30
2019-05-03T04:15:05.469Z,1.75
2019-05-03T04:17:57.062Z,1.50
2019-05-03T04:20:35.824Z,1.22
2019-05-03T04:23:06.336Z,1.65
2019-05-03T04:25:37.331Z,1.77
2019-05-03T04:28:08.608Z,1.98
2019-05-03T04:30:39.228Z,1.90
2019-05-03T04:33:10.058Z,2.15
2019-05-03T04:35:40.774Z,1.70
2019-05-03T04:38:11.515Z,1.60
2019-05-03T04:40:45.123Z,1.32
2019-05-03T04:43:16.487Z,1.30
2019-05-03T04:46:02.171Z,1.32
2019-05-03T04:48:35.579Z,1.32
2019-05-03T04:51:06.121Z,1.35
2019-05-03T04:53:38.930Z,1.35
2019-05-03T04:56:10.103Z,1.45
2019-05-03T04:58:42.211Z,1.37
2019-05-03T05:01:15.746Z,1.67
2019-05-03T05:03:46.146Z,1.37
2019-05-03T05:06:17.313Z,1.47
2019-05-03T05:08:48.230Z,1.45
2019-05-03T05:11:19.186Z,1.70
2019-05-03T05:13:50.330Z,1.60
2019-05-03T05:16:21.399Z,1.50
2019-05-03T05:18:56.588Z,1.70
2019-05-03T05:21:32.164Z,1.57
2019-05-03T05:24:05.523Z,1.40
2019-05-03T05:26:58.687Z,1.60
2019-05-03T05:29:31.428Z,1.40
2019-05-03T05:32:02.313Z,1.75
2019-05-03T05:34:34.922Z,1.70
2019-05-03T05:37:06.204Z,1.75
2019-05-03T05:39:37.314Z,1.37
2019-05-03T05:42:08.383Z,1.52
2019-05-03T05:44:39.710Z,1.40
2019-05-03T05:47:20.954Z,1.42
2019-05-03T05:49:58.571Z,1.25
2019-05-03T05:52:29.528Z,1.20
2019-05-03T05:55:27.263Z,1.70
2019-05-03T05:58:25.452Z,1.50
2019-05-03T06:00:58.972Z,1.60
2019-05-03T06:03:31.055Z,1.92
2019-05-03T06:06:05.365Z,1.62
2019-05-03T06:09:01.440Z,1.50
2019-05-03T06:11:42.444Z,1.25
2019-05-03T06:14:20.709Z,1.45
2019-05-03T06:17:02.266Z,1.35
2019-05-03T06:19:54.974Z,1.50
2019-05-03T06:22:39.067Z,1.52
2019-05-03T06:25:29.255Z,1.50
2019-05-03T06:28:01.622Z,1.98
2019-05-03T06:31:00.906Z,1.70
2019-05-03T06:33:31.899Z,1.40
2019-05-03T06:36:04.829Z,1.10
2019-05-03T06:38:35.500Z,1.47
2019-05-03T06:41:06.546Z,1.45
2019-05-03T06:43:39.508Z,1.30
2019-05-03T06:46:10.364Z,1.90
2019-05-03T06:48:41.497Z,2.00
2019-05-03T06:51:19.268Z,1.80
2019-05-03T06:53:47.566Z,2.20
2019-05-03T06:56:19.267Z,2.05
2019-05-03T06:58:50.595Z,1.45
2019-05-03T07:01:28.145Z,1.50
2019-05-03T07:04:05.121Z,1.75
2019-05-03T07:06:47.963Z,1.60
2019-05-03T07:09:37.824Z,1.47
2019-05-03T07:12:08.936Z,1.40
2019-05-03T07:14:39.963Z,1.17
2019-05-03T07:17:10.896Z,1.20
2019-05-03T07:19:41.932Z,1.47
2019-05-03T07:22:15.121Z,1.32
2019-05-03T07:24:45.634Z,1.30
2019-05-03T07:27:16.858Z,1.42
2019-05-03T07:29:47.726Z,1.80
2019-05-03T07:32:18.814Z,1.55
2019-05-03T07:34:49.605Z,1.80
2019-05-03T07:37:20.690Z,1.40
2019-05-03T07:39:51.553Z,1.40
2019-05-03T07:42:22.773Z,1.52
2019-05-03T07:44:55.805Z,1.40
2019-05-03T07:47:27.879Z,1.45
2019-05-03T07:49:58.973Z,1.72
2019-05-03T07:52:30.029Z,1.60
2019-05-03T07:55:01.263Z,1.40
2019-05-03T07:57:55.463Z,1.60
2019-05-03T08:00:27.459Z,1.80
2019-05-03T08:02:58.556Z,1.60
2019-05-03T08:05:29.604Z,2.10
2019-05-03T08:08:00.640Z,2.60
2019-05-03T08:10:31.286Z,3.72
2019-05-03T08:13:04.510Z,3.52
2019-05-03T08:15:34.903Z,2.37
2019-05-03T08:18:05.903Z,3.95
2019-05-03T08:20:36.962Z,1.40
2019-05-03T08:23:08.136Z,1.40
2019-05-03T08:25:39.148Z,1.20
2019-05-03T08:28:09.834Z,1.10
2019-05-03T08:30:54.794Z,1.20
2019-05-03T08:33:44.817Z,1.20
2019-05-03T08:36:16.073Z,1.17
2019-05-03T08:38:46.662Z,1.10
2019-05-03T08:41:19.731Z,1.20
2019-05-03T08:43:50.936Z,1.02
2019-05-03T08:46:21.956Z,1.92
2019-05-03T08:48:56.792Z,1.70
2019-05-03T08:51:27.856Z,1.40
2019-05-03T08:53:58.538Z,1.77
2019-05-03T08:56:29.678Z,1.37
2019-05-03T08:59:00.713Z,1.20
2019-05-03T09:01:31.854Z,1.72
2019-05-03T09:04:04.820Z,1.37
2019-05-03T09:06:35.809Z,1.67
2019-05-03T09:09:09.852Z,1.50
2019-05-03T09:11:40.797Z,2.05
2019-05-03T09:14:14.931Z,1.62
2019-05-03T09:16:46.004Z,1.40
2019-05-03T09:19:17.265Z,1.30
2019-05-03T09:21:48.257Z,1.75
2019-05-03T09:24:19.406Z,1.80
2019-05-03T09:26:50.639Z,2.08
2019-05-03T09:29:21.658Z,1.82
2019-05-03T09:31:52.312Z,1.37
2019-05-03T09:34:25.732Z,1.30
2019-05-03T09:36:56.588Z,1.20
2019-05-03T09:39:27.645Z,2.10
2019-05-03T09:41:58.774Z,2.58
2019-05-03T09:44:29.881Z,5.08
2019-05-03T09:47:01.073Z,3.98
2019-05-03T09:49:32.125Z,3.45
2019-05-03T09:52:02.790Z,5.45
2019-05-03T09:54:40.564Z,4.83
2019-05-03T09:57:11.864Z,5.12
2019-05-03T09:59:55.708Z,4.85
2019-05-03T10:02:15.258Z,4.20
2019-05-03T10:04:46.529Z,3.33
2019-05-03T10:07:17.648Z,3.87
2019-05-03T10:09:47.627Z,2.80
2019-05-03T10:12:20.731Z,2.20
2019-05-03T10:14:54.867Z,2.33
2019-05-03T10:17:46.924Z,1.77
2019-05-03T10:20:18.898Z,1.30
2019-05-03T10:22:49.986Z,1.85
2019-05-03T10:25:21.162Z,2.17
2019-05-03T10:27:51.878Z,1.85
2019-05-03T10:30:27.421Z,1.87
2019-05-03T10:33:05.972Z,1.65
2019-05-03T10:35:37.033Z,1.60
2019-05-03T10:38:07.976Z,1.30
2019-05-03T10:40:38.736Z,1.55
2019-05-03T10:43:10.728Z,1.47
2019-05-03T10:45:42.025Z,1.60
2019-05-03T10:48:15.289Z,1.65
2019-05-03T10:50:45.884Z,1.20
2019-05-03T10:53:22.802Z,1.50
2019-05-03T10:56:13.456Z,1.30
2019-05-03T10:58:45.893Z,1.30
2019-05-03T11:01:18.991Z,1.98
2019-05-03T11:03:49.706Z,1.80
2019-05-03T11:06:20.419Z,1.90
2019-05-03T11:08:54.532Z,1.40
2019-05-03T11:11:25.990Z,1.57
2019-05-03T11:13:57.042Z,1.70
2019-05-03T11:16:29.239Z,2.12
2019-05-03T11:19:01.648Z,1.47
2019-05-03T11:21:34.593Z,1.50
2019-05-03T11:24:06.118Z,2.87
2019-05-03T11:26:39.427Z,2.02
2019-05-03T11:29:10.494Z,2.60
2019-05-03T11:31:58.765Z,1.87
2019-05-03T11:34:35.480Z,1.60
2019-05-03T11:37:34.727Z,1.40
2019-05-03T11:40:06.320Z,2.10
2019-05-03T11:42:37.326Z,2.20
2019-05-03T11:45:09.767Z,1.98
2019-05-03T11:47:40.834Z,3.00
2019-05-03T11:50:14.672Z,3.00
2019-05-03T11:52:47.243Z,2.87
2019-05-03T11:55:17.783Z,2.85
2019-05-03T11:57:48.908Z,3.00
2019-05-03T12:00:26.799Z,3.12
2019-05-03T12:03:15.613Z,1.92
2019-05-03T12:05:49.716Z,1.98
2019-05-03T12:08:20.668Z,1.98
2019-05-03T12:10:58.639Z,1.62
2019-05-03T12:13:29.161Z,1.80
2019-05-03T12:16:00.948Z,2.10
2019-05-03T12:18:47.880Z,1.80
2019-05-03T12:21:08.258Z,1.80
2019-05-03T12:23:38.997Z,1.60
2019-05-03T12:26:13.432Z,1.70
2019-05-03T12:28:44.994Z,1.60
2019-05-03T12:31:29.402Z,1.50
2019-05-03T12:33:48.360Z,1.77
2019-05-03T12:36:19.452Z,1.72
2019-05-03T12:38:50.197Z,1.47
2019-05-03T12:41:22.398Z,1.62
2019-05-03T12:43:55.018Z,1.45
2019-05-03T12:46:26.185Z,1.67
2019-05-03T12:48:57.174Z,1.70
2019-05-03T12:51:28.391Z,1.55
2019-05-03T12:54:00.641Z,1.80
2019-05-03T12:56:32.931Z,1.92
2019-05-03T12:59:20.083Z,1.80
2019-05-03T13:02:15.511Z,1.75
2019-05-03T13:04:47.669Z,2.33
2019-05-03T13:07:40.252Z,2.12
2019-05-03T13:10:11.429Z,2.72
2019-05-03T13:12:50.711Z,3.17
2019-05-03T13:15:15.845Z,2.65
2019-05-03T13:17:46.493Z,2.10
2019-05-03T13:20:17.424Z,2.52
2019-05-03T13:22:48.444Z,2.95
2019-05-03T13:25:19.396Z,3.00
2019-05-03T13:27:50.324Z,2.62
2019-05-03T13:30:21.442Z,2.47
2019-05-03T13:32:54.909Z,2.10
2019-05-03T13:35:25.669Z,2.10
2019-05-03T13:37:56.865Z,1.90
2019-05-03T13:40:27.814Z,2.60
2019-05-03T13:43:03.534Z,2.50
2019-05-03T13:45:31.221Z,2.60
2019-05-03T13:48:04.975Z,1.80
2019-05-03T13:50:35.266Z,1.98
2019-05-03T13:53:06.395Z,2.15
2019-05-03T13:55:37.096Z,2.50
2019-05-03T13:58:08.362Z,2.17
2019-05-03T14:00:39.485Z,2.45
2019-05-03T14:03:10.550Z,2.30
2019-05-03T14:05:41.627Z,2.90
2019-05-03T14:08:12.202Z,3.37
2019-05-03T14:10:45.572Z,1.90
2019-05-03T14:13:16.058Z,1.75
2019-05-03T14:15:46.764Z,3.80
2019-05-03T14:18:17.857Z,4.35
2019-05-03T14:21:10.762Z,15.90
2019-05-03T14:24:00.038Z,3.65
2019-05-03T14:26:31.015Z,2.50
2019-05-03T14:29:01.897Z,2.40
2019-05-03T14:31:34.622Z,2.45
2019-05-03T14:34:06.197Z,2.62
2019-05-03T14:36:37.897Z,1.98
2019-05-03T14:39:10.384Z,1.90
2019-05-03T14:41:41.569Z,2.25
2019-05-03T14:44:14.900Z,2.50
2019-05-03T14:46:45.880Z,3.83
2019-05-03T14:49:17.466Z,4.12
2019-05-03T14:51:48.145Z,3.10
2019-05-03T14:54:20.293Z,2.72
2019-05-03T14:57:08.263Z,3.80
2019-05-03T15:00:16.834Z,3.60
2019-05-03T15:02:51.218Z,2.65
2019-05-03T15:05:22.470Z,3.15
2019-05-03T15:07:55.871Z,2.90
2019-05-03T15:10:26.194Z,3.87
2019-05-03T15:12:57.015Z,5.28
2019-05-03T15:15:28.939Z,5.97
2019-05-03T15:18:00.112Z,3.50
2019-05-03T15:20:30.802Z,3.47
2019-05-03T15:23:02.538Z,3.42
2019-05-03T15:25:34.590Z,2.90
2019-05-03T15:28:05.942Z,2.67
2019-05-03T15:30:36.641Z,2.60
2019-05-03T15:33:08.543Z,3.20
2019-05-03T15:35:39.295Z,3.25
2019-05-03T15:38:10.040Z,3.12
2019-05-03T15:40:40.685Z,4.00
2019-05-03T15:43:20.733Z,4.12
2019-05-03T15:46:01.884Z,5.42
2019-05-03T15:48:37.877Z,5.20
2019-05-03T15:51:08.534Z,5.40
2019-05-03T15:53:39.209Z,5.12
2019-05-03T15:56:09.863Z,4.92
2019-05-03T15:58:40.559Z,3.95
2019-05-03T16:01:11.221Z,3.85
2019-05-03T16:03:41.878Z,3.30
2019-05-03T16:06:12.988Z,3.22
2019-05-03T16:08:44.595Z,2.58
2019-05-03T16:11:15.317Z,2.08
2019-05-03T16:13:46.586Z,2.00
2019-05-03T16:16:17.472Z,1.80
2019-05-03T16:18:48.192Z,1.60
2019-05-03T16:21:19.044Z,1.60
2019-05-03T16:23:49.713Z,2.02
2019-05-03T16:26:20.984Z,1.82
2019-05-03T16:28:57.101Z,2.20
2019-05-03T16:31:27.766Z,1.98
2019-05-03T16:33:58.505Z,1.80
2019-05-03T16:36:29.525Z,1.95
2019-05-03T16:39:00.841Z,2.05
2019-05-03T16:41:40.278Z,2.00
2019-05-03T16:44:14.636Z,1.90
2019-05-03T16:46:51.644Z,2.22
2019-05-03T16:49:24.567Z,2.25
2019-05-03T16:51:57.326Z,2.55
2019-05-03T16:54:28.981Z,2.70
2019-05-03T16:56:59.852Z,2.72
2019-05-03T16:59:30.572Z,2.90
2019-05-03T17:02:01.308Z,3.15
2019-05-03T17:04:46.479Z,2.92
2019-05-03T17:07:41.989Z,2.35
2019-05-03T17:10:21.189Z,2.20
2019-05-03T17:12:51.857Z,1.87
2019-05-03T17:15:25.009Z,2.08
2019-05-03T17:17:55.965Z,2.20
2019-05-03T17:20:26.737Z,2.20
2019-05-03T17:22:57.482Z,2.83
2019-05-03T17:25:29.754Z,2.90
2019-05-03T17:28:00.544Z,2.40
2019-05-03T17:30:35.123Z,2.35
2019-05-03T17:33:05.813Z,2.33
2019-05-03T17:35:37.198Z,2.47
2019-05-03T17:38:07.869Z,2.60
2019-05-03T17:40:48.402Z,2.40
2019-05-03T17:43:38.462Z,2.60
2019-05-03T17:46:09.542Z,2.30
2019-05-03T17:48:40.616Z,2.60
2019-05-03T17:51:14.942Z,2.55
2019-05-03T17:54:01.382Z,2.62
2019-05-03T17:56:55.216Z,2.70
2019-05-03T17:59:45.132Z,2.60
2019-05-03T18:02:27.779Z,3.72
2019-05-03T18:05:17.871Z,3.35
2019-05-03T18:08:13.533Z,3.33
2019-05-03T18:10:49.431Z,3.75
2019-05-03T18:13:24.758Z,3.58
2019-05-03T18:15:57.828Z,3.60
2019-05-03T18:18:30.096Z,3.40
2019-05-03T18:21:00.933Z,3.67
2019-05-03T18:23:31.666Z,4.10
2019-05-03T18:26:02.354Z,5.47
2019-05-03T18:28:33.137Z,4.62
2019-05-03T18:31:05.429Z,3.77
2019-05-03T18:33:36.312Z,4.35
2019-05-03T18:36:07.018Z,4.50
2019-05-03T18:38:40.493Z,4.25
2019-05-03T18:41:13.993Z,4.25
2019-05-03T18:43:54.798Z,4.60
2019-05-03T18:46:28.433Z,4.72
2019-05-03T18:48:59.565Z,6.12
2019-05-03T18:51:30.322Z,7.28
2019-05-03T18:54:01.343Z,7.50
2019-05-03T20:02:56.519Z,7.53
2019-05-03T20:05:52.313Z,9.10
2019-05-03T20:08:26.825Z,10.85
2019-05-03T20:11:15.197Z,10.63
2019-05-03T20:13:47.021Z,9.95
2019-05-03T20:16:17.745Z,8.73
2019-05-03T20:18:48.422Z,8.95
2019-05-03T20:21:20.209Z,7.85
2019-05-03T20:23:50.864Z,7.55
2019-05-03T20:26:21.716Z,8.78
2019-05-03T20:28:52.481Z,10.15
2019-05-03T20:31:24.961Z,10.10
2019-05-03T20:33:55.817Z,11.88
2019-05-03T20:36:26.628Z,15.35
2019-05-03T20:38:59.937Z,19.70
2019-05-03T20:41:30.725Z,21.00
2019-05-03T20:44:15.285Z,22.25
2019-05-03T20:47:09.483Z,21.60
2019-05-03T20:49:40.733Z,21.97
2019-05-03T20:52:11.885Z,25.17
2019-05-03T20:54:45.264Z,21.87
2019-05-03T20:57:15.949Z,21.37
2019-05-03T20:59:50.371Z,22.77
2019-05-03T21:02:18.970Z,23.42
2019-05-03T21:04:49.720Z,23.85
2019-05-03T21:07:21.553Z,26.00
2019-05-03T21:09:52.255Z,23.75
2019-05-03T21:12:22.852Z,23.07
2019-05-03T21:14:55.587Z,23.95
2019-05-03T21:17:44.997Z,25.68
2019-05-03T21:20:34.819Z,24.15
2019-05-03T21:23:08.481Z,26.35
2019-05-03T21:26:05.702Z,27.10
2019-05-03T21:28:17.485Z,24.25
2019-05-03T21:30:50.254Z,24.77
2019-05-03T21:33:20.917Z,23.98
2019-05-03T21:35:51.657Z,21.52
2019-05-03T21:38:22.306Z,21.00
2019-05-03T21:40:54.649Z,19.45
2019-05-03T21:43:25.725Z,17.85
2019-05-03T21:46:04.491Z,18.37
2019-05-03T21:48:55.253Z,16.55
2019-05-03T21:51:25.642Z,18.48
2019-05-03T21:53:57.889Z,17.82
2019-05-03T21:56:28.658Z,17.98
2019-05-03T21:58:59.412Z,17.23
2019-05-03T22:01:30.109Z,17.62
2019-05-03T22:04:00.772Z,17.80
2019-05-03T22:06:31.465Z,17.30
2019-05-03T22:09:02.185Z,15.72
2019-05-03T22:11:34.407Z,14.30
2019-05-03T22:14:08.250Z,14.13
2019-05-03T22:17:10.039Z,13.53
2019-05-03T22:19:41.628Z,12.90
2019-05-03T22:22:29.844Z,12.30
2019-05-03T22:25:01.343Z,13.18
2019-05-03T22:27:38.139Z,13.08
2019-05-03T22:30:09.124Z,13.20
2019-05-03T22:32:39.776Z,12.55
2019-05-03T22:35:10.525Z,13.10
2019-05-03T22:37:41.258Z,12.35
2019-05-03T22:40:14.485Z,11.97
2019-05-03T22:42:45.091Z,12.88
2019-05-03T22:45:16.154Z,14.60
2019-05-03T22:47:46.901Z,14.38
2019-05-03T22:50:17.901Z,14.35
2019-05-03T22:52:49.086Z,14.43
2019-05-03T22:55:19.988Z,13.45
2019-05-03T22:57:50.844Z,14.23
2019-05-03T23:00:22.084Z,16.27
2019-05-03T23:02:54.772Z,16.35
2019-05-03T23:05:27.884Z,17.45
2019-05-03T23:07:58.698Z,18.65
2019-05-03T23:10:30.040Z,20.25
2019-05-03T23:13:01.350Z,21.70
2019-05-03T23:15:32.441Z,19.92
2019-05-03T23:18:04.948Z,20.02
2019-05-03T23:20:45.398Z,19.85
2019-05-03T23:23:35.732Z,19.52
2019-05-03T23:26:07.032Z,17.87
2019-05-03T23:28:38.195Z,17.00
2019-05-03T23:31:09.462Z,16.17
2019-05-03T23:33:40.806Z,14.98
2019-05-03T23:36:11.449Z,14.47
2019-05-03T23:38:42.468Z,13.75
2019-05-03T23:41:15.117Z,13.75
2019-05-03T23:43:45.333Z,13.00
2019-05-03T23:46:17.609Z,13.28
2019-05-03T23:48:48.577Z,12.47
2019-05-03T23:51:37.584Z,10.93
2019-05-03T23:54:08.262Z,11.83
2019-05-03T23:56:39.023Z,9.78
2019-05-03T23:59:09.622Z,9.65
